createdAt,value
2022-09-06T00:00:00.596Z,1.33
2022-09-06T00:02:35.381Z,1.38
2022-09-06T00:05:02.360Z,1.30
2022-09-06T00:07:28.715Z,1.35
2022-09-06T00:09:55.147Z,1.30
2022-09-06T00:12:21.553Z,1.88
2022-09-06T00:14:48.099Z,1.60
2022-09-06T00:17:14.515Z,1.20
2022-09-06T00:19:41.099Z,1.80
2022-09-06T00:22:07.846Z,1.80
2022-09-06T00:24:34.572Z,1.80
2022-09-06T00:27:01.137Z,1.58
2022-09-06T00:29:27.539Z,2.10
2022-09-06T00:31:53.933Z,2.20
2022-09-06T00:34:20.406Z,1.80
2022-09-06T00:36:46.972Z,1.67
2022-09-06T00:39:13.317Z,1.50
2022-09-06T00:41:39.940Z,1.70
2022-09-06T00:44:06.612Z,1.63
2022-09-06T00:46:33.911Z,1.60
2022-09-06T00:49:16.889Z,1.65
2022-09-06T00:51:43.659Z,1.80
2022-09-06T00:54:10.285Z,1.60
2022-09-06T00:56:41.739Z,1.35
2022-09-06T00:59:08.344Z,1.43
2022-09-06T01:01:35.059Z,1.70
2022-09-06T01:04:03.378Z,1.50
2022-09-06T01:06:44.416Z,1.42
2022-09-06T01:09:19.656Z,1.52
2022-09-06T01:12:13.513Z,1.77
2022-09-06T01:15:00.156Z,1.80
2022-09-06T01:17:30.763Z,2.50
2022-09-06T01:20:19.051Z,2.83
2022-09-06T01:22:51.397Z,2.28
2022-09-06T01:25:44.452Z,2.60
2022-09-06T01:28:33.900Z,2.40
2022-09-06T01:31:25.918Z,2.83
2022-09-06T01:34:07.633Z,2.25
2022-09-06T01:37:09.864Z,2.72
2022-09-06T01:39:39.266Z,2.20
2022-09-06T01:42:10.624Z,3.40
2022-09-06T01:44:39.568Z,2.85
2022-09-06T01:47:23.453Z,3.28
2022-09-06T01:50:08.260Z,2.22
2022-09-06T01:52:49.280Z,2.87
2022-09-06T01:55:26.060Z,3.63
2022-09-06T01:58:09.119Z,3.47
2022-09-06T02:00:45.411Z,3.95
2022-09-06T02:03:14.521Z,3.60
2022-09-06T02:05:51.538Z,3.07
2022-09-06T02:08:41.664Z,3.08
2022-09-06T02:11:09.513Z,2.90
2022-09-06T02:13:53.978Z,3.40
2022-09-06T02:16:23.446Z,3.28
2022-09-06T02:18:56.741Z,3.80
2022-09-06T02:21:29.564Z,4.05
2022-09-06T02:24:00.292Z,4.00
2022-09-06T02:26:30.496Z,3.95
2022-09-06T02:28:57.720Z,3.42
2022-09-06T02:31:31.769Z,3.70
2022-09-06T02:33:58.695Z,3.45
2022-09-06T02:36:25.628Z,3.92
2022-09-06T02:38:54.309Z,3.90
2022-09-06T02:41:24.256Z,3.97
2022-09-06T02:43:50.866Z,4.30
2022-09-06T02:46:17.520Z,4.50
2022-09-06T02:48:44.163Z,4.43
2022-09-06T02:51:10.652Z,5.03
2022-09-06T02:53:37.169Z,4.43
2022-09-06T02:56:04.207Z,3.90
2022-09-06T02:58:31.243Z,4.43
2022-09-06T03:00:57.923Z,4.20
2022-09-06T03:03:24.944Z,5.30
2022-09-06T03:05:52.691Z,3.47
2022-09-06T03:08:20.901Z,4.00
2022-09-06T03:10:52.296Z,3.28
2022-09-06T03:13:19.240Z,3.72
2022-09-06T03:15:50.836Z,3.90
2022-09-06T03:18:17.408Z,4.70
2022-09-06T03:20:43.949Z,4.00
2022-09-06T03:23:11.006Z,3.90
2022-09-06T03:25:37.389Z,4.10
2022-09-06T03:28:03.959Z,4.05
2022-09-06T03:30:30.551Z,3.80
2022-09-06T03:33:00.782Z,3.77
2022-09-06T03:35:28.923Z,3.80
2022-09-06T03:37:55.268Z,3.70
2022-09-06T03:40:21.644Z,4.00
2022-09-06T03:42:48.116Z,3.80
2022-09-06T03:45:14.692Z,3.20
2022-09-06T03:47:41.116Z,2.60
2022-09-06T03:50:08.393Z,3.40
2022-09-06T03:52:35.067Z,2.83
2022-09-06T03:55:01.638Z,3.33
2022-09-06T03:57:28.195Z,3.17
2022-09-06T03:59:54.704Z,3.47
2022-09-06T04:02:21.094Z,3.65
2022-09-06T04:04:47.588Z,3.85
2022-09-06T04:07:14.198Z,3.85
2022-09-06T04:09:40.581Z,2.70
2022-09-06T04:12:07.283Z,3.00
2022-09-06T04:14:33.876Z,2.95
2022-09-06T04:17:00.336Z,3.40
2022-09-06T04:19:26.801Z,3.42
2022-09-06T04:21:53.216Z,3.07
2022-09-06T04:24:19.560Z,3.25
2022-09-06T04:26:45.933Z,3.35
2022-09-06T04:29:12.355Z,3.78
2022-09-06T04:31:38.909Z,2.85
2022-09-06T04:34:05.318Z,3.23
2022-09-06T04:36:31.924Z,3.33
2022-09-06T04:38:58.316Z,2.88
2022-09-06T04:41:24.692Z,3.10
2022-09-06T04:43:51.172Z,2.80
2022-09-06T04:46:21.692Z,3.40
2022-09-06T04:48:49.660Z,2.30
2022-09-06T04:51:16.084Z,3.05
2022-09-06T04:53:42.436Z,2.72
2022-09-06T04:56:14.097Z,2.88
2022-09-06T04:58:40.439Z,2.90
2022-09-06T05:01:06.845Z,3.20
2022-09-06T05:03:33.272Z,3.60
2022-09-06T05:06:25.979Z,2.97
2022-09-06T05:08:52.512Z,3.60
2022-09-06T05:11:19.810Z,3.23
2022-09-06T05:13:47.264Z,2.90
2022-09-06T05:16:14.028Z,3.30
2022-09-06T05:18:40.421Z,3.55
2022-09-06T05:21:07.596Z,3.38
2022-09-06T05:23:33.981Z,4.10
2022-09-06T05:26:00.344Z,3.30
2022-09-06T05:28:26.848Z,2.90
2022-09-06T05:30:53.494Z,4.00
2022-09-06T05:33:22.405Z,3.13
2022-09-06T05:35:48.909Z,3.63
2022-09-06T05:38:15.545Z,3.72
2022-09-06T05:40:42.199Z,3.67
2022-09-06T05:43:08.619Z,4.82
2022-09-06T05:45:35.114Z,3.90
2022-09-06T05:48:01.826Z,3.77
2022-09-06T05:50:28.249Z,4.18
2022-09-06T05:52:54.780Z,3.63
2022-09-06T05:55:21.239Z,3.97
2022-09-06T05:57:47.637Z,3.50
2022-09-06T06:00:14.560Z,4.23
2022-09-06T06:02:41.100Z,3.25
2022-09-06T06:05:08.051Z,4.47
2022-09-06T06:07:34.756Z,3.90
2022-09-06T06:10:01.297Z,3.55
2022-09-06T06:12:27.898Z,4.30
2022-09-06T06:14:54.276Z,4.15
2022-09-06T06:17:21.032Z,4.32
2022-09-06T06:19:47.537Z,5.03
2022-09-06T06:22:14.092Z,5.70
2022-09-06T06:24:40.497Z,5.40
2022-09-06T06:27:07.052Z,5.20
2022-09-06T06:29:33.700Z,5.35
2022-09-06T06:32:00.198Z,4.35
2022-09-06T06:34:26.646Z,4.80
2022-09-06T06:36:53.045Z,5.30
2022-09-06T06:39:19.721Z,5.47
2022-09-06T06:41:46.443Z,5.45
2022-09-06T06:44:12.830Z,5.45
2022-09-06T06:46:39.364Z,5.78
2022-09-06T06:49:05.835Z,5.23
2022-09-06T06:51:33.964Z,5.22
2022-09-06T06:54:00.378Z,6.18
2022-09-06T06:56:32.392Z,5.60
2022-09-06T06:59:01.666Z,6.13
2022-09-06T07:01:30.423Z,6.07
2022-09-06T07:03:57.156Z,6.30
2022-09-06T07:09:11.002Z,6.85
2022-09-06T07:11:38.434Z,6.40
2022-09-06T07:14:04.982Z,5.77
2022-09-06T07:16:31.605Z,5.88
2022-09-06T07:18:58.160Z,6.57
2022-09-06T07:26:31.625Z,6.33
2022-09-06T07:29:00.335Z,6.25
2022-09-06T07:34:16.010Z,5.80
2022-09-06T07:36:42.419Z,5.93
2022-09-06T07:39:08.987Z,5.90
2022-09-06T07:41:35.393Z,6.68
2022-09-06T07:44:02.089Z,5.82
2022-09-06T07:46:28.706Z,6.13
2022-09-06T07:48:55.281Z,6.63
2022-09-06T07:51:22.257Z,5.83
2022-09-06T07:53:57.919Z,6.05
2022-09-06T07:56:30.095Z,5.60
2022-09-06T07:58:57.396Z,6.28
2022-09-06T08:01:32.648Z,5.97
2022-09-06T08:04:14.071Z,6.33
2022-09-06T08:09:33.248Z,5.93
2022-09-06T08:11:59.700Z,5.00
2022-09-06T08:14:26.244Z,5.70
2022-09-06T08:16:52.668Z,5.93
2022-09-06T08:19:19.060Z,6.22
2022-09-06T08:21:45.466Z,5.50
2022-09-06T08:24:11.873Z,5.57
2022-09-06T08:26:45.129Z,6.03
2022-09-06T08:29:12.935Z,6.23
2022-09-06T08:31:44.113Z,6.20
2022-09-06T08:34:14.275Z,5.45
2022-09-06T08:36:42.028Z,5.05
2022-09-06T08:39:10.087Z,5.35
2022-09-06T08:41:55.786Z,5.10
2022-09-06T08:47:16.203Z,5.38
2022-09-06T08:49:47.952Z,5.38
2022-09-06T08:52:34.264Z,5.88
2022-09-06T08:55:28.824Z,5.90
2022-09-06T08:58:07.351Z,4.18
2022-09-06T09:00:35.688Z,4.72
2022-09-06T09:03:23.181Z,4.75
2022-09-06T09:05:53.633Z,4.70
2022-09-06T09:08:39.989Z,5.10
2022-09-06T09:11:10.293Z,5.05
2022-09-06T09:14:08.811Z,5.10
2022-09-06T09:16:35.796Z,4.32
2022-09-06T09:19:04.977Z,3.85
2022-09-06T09:21:36.560Z,4.30
2022-09-06T09:24:09.101Z,4.55
2022-09-06T09:27:22.279Z,4.50
2022-09-06T09:32:43.841Z,4.55
2022-09-06T09:35:30.432Z,4.97
2022-09-06T09:38:07.848Z,4.63
2022-09-06T09:40:49.315Z,4.03
2022-09-06T09:43:22.457Z,3.90
2022-09-06T09:46:22.754Z,4.13
2022-09-06T09:49:10.591Z,5.30
2022-09-06T09:51:42.844Z,4.88
2022-09-06T09:54:11.933Z,5.70
2022-09-06T09:56:43.930Z,4.88
2022-09-06T09:59:24.749Z,6.55
2022-09-06T10:02:00.230Z,5.93
2022-09-06T10:04:48.763Z,5.40
2022-09-06T10:07:19.453Z,4.95
2022-09-06T10:10:05.204Z,5.18
2022-09-06T10:12:40.066Z,4.38
2022-09-06T10:15:34.187Z,6.27
2022-09-06T10:18:00.599Z,5.90
2022-09-06T10:20:39.384Z,4.97
2022-09-06T10:26:19.082Z,3.40
2022-09-06T10:28:46.000Z,3.83
2022-09-06T10:31:12.529Z,3.22
2022-09-06T10:34:10.572Z,3.67
2022-09-06T10:36:40.421Z,3.47
2022-09-06T10:39:26.434Z,3.40
2022-09-06T10:42:08.289Z,3.07
2022-09-06T10:45:01.939Z,3.20
2022-09-06T10:47:43.444Z,2.63
2022-09-06T10:50:10.339Z,2.40
2022-09-06T10:52:43.007Z,1.80
2022-09-06T11:00:27.140Z,2.78
2022-09-06T11:05:59.380Z,2.95
2022-09-06T11:11:24.512Z,1.83
2022-09-06T11:13:50.977Z,1.58
2022-09-06T11:16:28.752Z,1.85
2022-09-06T11:19:22.990Z,2.60
2022-09-06T11:22:08.245Z,1.80
2022-09-06T11:25:04.360Z,1.70
2022-09-06T11:27:30.635Z,1.75
2022-09-06T11:29:59.081Z,1.40
2022-09-06T11:32:39.257Z,1.33
2022-09-06T11:35:22.540Z,1.47
2022-09-06T11:38:01.565Z,2.00
2022-09-06T11:40:41.716Z,1.90
2022-09-06T11:43:11.279Z,1.80
2022-09-06T11:45:46.663Z,2.15
2022-09-06T11:48:50.526Z,1.53
2022-09-06T11:51:41.669Z,1.90
2022-09-06T11:54:14.845Z,2.40
2022-09-06T11:56:47.069Z,2.00
2022-09-06T11:59:33.926Z,2.22
2022-09-06T12:02:10.025Z,2.60
2022-09-06T12:05:01.421Z,2.60
2022-09-06T12:07:29.880Z,2.65
2022-09-06T12:09:56.452Z,1.95
2022-09-06T12:12:41.874Z,2.47
2022-09-06T12:15:23.758Z,2.93
2022-09-06T12:17:50.196Z,2.92
2022-09-06T12:20:45.660Z,3.40
2022-09-06T12:23:34.871Z,2.80
2022-09-06T12:26:12.040Z,4.13
2022-09-06T12:28:49.846Z,3.87
2022-09-06T12:31:32.851Z,3.20
2022-09-06T12:34:11.525Z,3.20
2022-09-06T12:36:57.835Z,3.60
2022-09-06T12:39:24.950Z,3.03
2022-09-06T12:41:56.043Z,3.57
2022-09-06T12:44:31.310Z,2.60
2022-09-06T12:47:04.827Z,3.10
2022-09-06T12:49:32.014Z,3.20
2022-09-06T12:52:14.305Z,2.97
2022-09-06T12:54:49.417Z,3.10
2022-09-06T12:57:24.531Z,3.10
2022-09-06T12:59:58.084Z,3.53
2022-09-06T13:02:31.854Z,3.00
2022-09-06T13:05:12.361Z,3.35
2022-09-06T13:07:44.307Z,3.30
2022-09-06T13:10:16.502Z,3.28
2022-09-06T13:12:45.299Z,3.35
2022-09-06T13:15:25.257Z,2.30
2022-09-06T13:17:54.973Z,2.60
2022-09-06T13:20:21.308Z,3.67
2022-09-06T13:22:50.797Z,2.63
2022-09-06T13:25:26.588Z,2.80
2022-09-06T13:27:58.346Z,2.63
2022-09-06T13:30:49.658Z,3.08
2022-09-06T13:33:24.215Z,2.20
2022-09-06T13:36:04.792Z,2.55
2022-09-06T13:38:34.518Z,3.08
2022-09-06T13:41:16.892Z,2.72
2022-09-06T13:43:46.276Z,2.97
2022-09-06T13:46:12.990Z,2.20
2022-09-06T13:48:39.877Z,2.10
2022-09-06T13:51:08.052Z,2.22
2022-09-06T13:53:35.463Z,1.90
2022-09-06T13:56:02.407Z,2.78
2022-09-06T13:58:29.790Z,1.83
2022-09-06T14:01:02.627Z,2.20
2022-09-06T14:03:31.448Z,2.47
2022-09-06T14:06:00.183Z,2.10
2022-09-06T14:08:38.743Z,1.73
2022-09-06T14:11:14.933Z,1.30
2022-09-06T14:13:41.521Z,1.73
2022-09-06T14:16:08.131Z,1.40
2022-09-06T14:18:34.887Z,1.50
2022-09-06T14:21:01.325Z,1.40
2022-09-06T14:23:28.295Z,1.23
2022-09-06T14:25:56.629Z,0.98
2022-09-06T14:28:24.229Z,1.70
2022-09-06T14:30:52.046Z,1.30
2022-09-06T14:33:19.683Z,1.35
2022-09-06T14:35:46.142Z,1.40
2022-09-06T14:38:12.798Z,1.20
2022-09-06T14:40:40.209Z,1.05
2022-09-06T14:43:07.033Z,1.23
2022-09-06T14:45:34.559Z,1.30
2022-09-06T14:48:01.044Z,1.40
2022-09-06T14:50:27.631Z,1.30
2022-09-06T14:52:54.060Z,1.30
2022-09-06T14:55:21.286Z,1.40
2022-09-06T14:57:47.706Z,1.83
2022-09-06T15:00:14.490Z,1.97
2022-09-06T15:02:41.130Z,1.55
2022-09-06T15:05:08.996Z,2.00
2022-09-06T15:07:35.543Z,2.03
2022-09-06T15:10:02.940Z,1.40
2022-09-06T15:12:29.462Z,1.50
2022-09-06T15:14:55.859Z,1.60
2022-09-06T15:17:22.264Z,1.42
2022-09-06T15:19:48.877Z,1.30
2022-09-06T15:22:15.328Z,1.30
2022-09-06T15:24:41.726Z,1.30
2022-09-06T15:27:08.171Z,1.15
2022-09-06T15:29:34.558Z,1.30
2022-09-06T15:32:01.257Z,1.00
2022-09-06T15:34:27.780Z,1.35
2022-09-06T15:36:54.431Z,1.10
2022-09-06T15:39:21.215Z,1.40
2022-09-06T15:41:50.133Z,1.00
2022-09-06T15:44:18.780Z,1.10
2022-09-06T15:46:53.841Z,1.13
2022-09-06T15:49:28.275Z,1.30
2022-09-06T15:51:56.372Z,0.88
2022-09-06T15:54:45.389Z,0.90
2022-09-06T15:57:13.484Z,1.10
2022-09-06T15:59:41.193Z,0.95
2022-09-06T16:02:08.915Z,0.80
2022-09-06T16:04:35.529Z,1.00
2022-09-06T16:07:01.968Z,0.77
2022-09-06T16:09:29.332Z,1.00
2022-09-06T16:11:55.807Z,1.30
2022-09-06T16:14:22.249Z,1.10
2022-09-06T16:16:48.883Z,1.13
2022-09-06T16:19:15.458Z,1.63
2022-09-06T16:21:43.353Z,1.33
2022-09-06T16:24:12.784Z,1.67
2022-09-06T16:26:42.200Z,1.63
2022-09-06T16:29:11.165Z,1.52
2022-09-06T16:31:40.476Z,1.80
2022-09-06T16:34:11.787Z,1.60
2022-09-06T16:36:38.426Z,1.50
2022-09-06T16:39:05.781Z,1.80
2022-09-06T16:41:41.062Z,1.83
2022-09-06T16:44:16.632Z,1.70
2022-09-06T16:46:45.491Z,1.70
2022-09-06T16:49:12.274Z,2.03
2022-09-06T16:51:38.660Z,2.07
2022-09-06T16:54:05.068Z,1.75
2022-09-06T16:56:34.680Z,1.60
2022-09-06T16:59:04.209Z,2.03
2022-09-06T17:01:32.354Z,2.10
2022-09-06T17:04:01.361Z,1.87
2022-09-06T17:06:29.103Z,1.70
2022-09-06T17:08:58.611Z,1.80
2022-09-06T17:11:26.023Z,1.80
2022-09-06T17:13:54.382Z,1.60
2022-09-06T17:16:39.999Z,2.00
2022-09-06T17:19:07.579Z,1.88
2022-09-06T17:21:34.429Z,2.38
2022-09-06T17:24:04.610Z,2.50
2022-09-06T17:26:32.948Z,1.60
2022-09-06T17:28:59.515Z,1.60
2022-09-06T17:31:26.293Z,1.80
2022-09-06T17:33:53.631Z,2.25
2022-09-06T17:36:25.649Z,1.67
2022-09-06T17:38:53.871Z,2.38
2022-09-06T17:41:28.792Z,2.73
2022-09-06T17:43:55.657Z,1.80
2022-09-06T17:46:28.483Z,1.77
2022-09-06T17:48:56.044Z,1.70
2022-09-06T17:51:23.186Z,1.70
2022-09-06T17:53:49.698Z,1.73
2022-09-06T17:56:17.860Z,1.90
2022-09-06T17:58:53.142Z,1.85
2022-09-06T18:01:20.042Z,1.58
2022-09-06T18:03:47.927Z,1.48
2022-09-06T18:06:19.953Z,1.73
2022-09-06T18:08:47.995Z,1.90
2022-09-06T18:11:17.025Z,1.80
2022-09-06T18:13:44.921Z,2.05
2022-09-06T18:16:14.246Z,1.90
2022-09-06T18:18:41.145Z,1.83
2022-09-06T18:21:07.891Z,1.55
2022-09-06T18:23:34.884Z,1.80
2022-09-06T18:26:06.692Z,1.80
2022-09-06T18:28:35.353Z,2.17
2022-09-06T18:31:10.302Z,2.40
2022-09-06T18:33:38.227Z,2.47
2022-09-06T18:36:06.712Z,2.65
2022-09-06T18:38:37.988Z,2.35
2022-09-06T18:41:06.494Z,2.28
2022-09-06T18:43:40.306Z,2.40
2022-09-06T18:46:12.751Z,2.33
2022-09-06T18:48:40.664Z,2.30
2022-09-06T18:51:11.469Z,2.13
2022-09-06T18:53:43.992Z,2.30
2022-09-06T18:56:12.643Z,2.27
2022-09-06T18:58:39.259Z,2.30
2022-09-06T19:01:08.750Z,1.92
2022-09-06T19:03:36.855Z,2.45
2022-09-06T19:06:08.823Z,1.95
2022-09-06T19:08:36.308Z,2.10
2022-09-06T19:11:07.544Z,2.05
2022-09-06T19:13:36.540Z,2.30
2022-09-06T19:16:04.323Z,1.92
2022-09-06T19:18:31.329Z,2.00
2022-09-06T19:20:59.630Z,1.93
2022-09-06T19:23:27.122Z,2.15
2022-09-06T19:25:58.251Z,2.08
2022-09-06T19:28:24.903Z,1.63
2022-09-06T19:30:51.523Z,2.33
2022-09-06T19:33:17.949Z,2.13
2022-09-06T19:36:07.691Z,2.40
2022-09-06T19:38:52.580Z,2.15
2022-09-06T19:41:20.509Z,2.10
2022-09-06T19:43:51.575Z,2.28
2022-09-06T19:46:18.248Z,2.10
2022-09-06T19:48:52.540Z,2.47
2022-09-06T19:51:20.077Z,2.72
2022-09-06T19:53:54.651Z,2.38
2022-09-06T19:56:26.572Z,2.58
2022-09-06T19:58:57.951Z,3.10
2022-09-06T20:01:26.276Z,4.38
2022-09-06T20:03:53.039Z,3.95
2022-09-06T20:06:22.362Z,4.13
2022-09-06T20:08:51.475Z,3.15
2022-09-06T20:11:19.014Z,3.00
2022-09-06T20:13:45.936Z,3.00
2022-09-06T20:16:13.458Z,3.28
2022-09-06T20:18:40.372Z,3.22
2022-09-06T20:21:07.420Z,3.40
2022-09-06T20:23:35.078Z,3.10
2022-09-06T20:26:15.299Z,2.80
2022-09-06T20:28:44.052Z,3.45
2022-09-06T20:31:20.578Z,3.08
2022-09-06T20:33:49.739Z,3.65
2022-09-06T20:36:17.696Z,3.93
2022-09-06T20:38:45.539Z,3.88
2022-09-06T20:41:14.703Z,3.90
2022-09-06T20:43:41.643Z,3.30
2022-09-06T20:46:14.820Z,3.38
2022-09-06T20:48:44.679Z,3.60
2022-09-06T20:51:16.035Z,3.03
2022-09-06T20:53:42.925Z,3.42
2022-09-06T20:56:12.261Z,3.38
2022-09-06T20:58:39.671Z,3.78
2022-09-06T21:01:11.510Z,3.90
2022-09-06T21:03:40.863Z,3.40
2022-09-06T21:06:10.047Z,3.67
2022-09-06T21:08:42.028Z,4.95
2022-09-06T21:11:09.782Z,3.50
2022-09-06T21:13:37.046Z,3.97
2022-09-06T21:16:04.754Z,4.82
2022-09-06T21:18:32.207Z,4.28
2022-09-06T21:21:01.321Z,4.15
2022-09-06T21:23:29.989Z,4.68
2022-09-06T21:26:02.488Z,5.57
2022-09-06T21:28:31.244Z,4.43
2022-09-06T21:31:08.158Z,4.75
2022-09-06T21:33:36.759Z,4.47
2022-09-06T21:36:07.137Z,5.00
2022-09-06T21:38:35.385Z,4.00
2022-09-06T21:41:03.549Z,4.35
2022-09-06T21:43:30.297Z,4.35
2022-09-06T21:45:58.317Z,4.00
2022-09-06T21:48:24.749Z,4.10
2022-09-06T21:50:51.774Z,4.70
2022-09-06T21:53:19.533Z,4.55
2022-09-06T21:55:46.644Z,4.25
2022-09-06T21:58:13.294Z,3.60
2022-09-06T22:00:40.803Z,3.47
2022-09-06T22:03:08.226Z,3.17
2022-09-06T22:05:35.604Z,3.03
2022-09-06T22:08:02.556Z,2.67
2022-09-06T22:10:28.989Z,2.58
2022-09-06T22:12:55.564Z,2.42
2022-09-06T22:15:23.585Z,2.50
2022-09-06T22:17:49.979Z,2.63
2022-09-06T22:20:17.203Z,2.20
2022-09-06T22:22:46.432Z,2.55
2022-09-06T22:25:13.622Z,2.20
2022-09-06T22:27:40.774Z,2.33
2022-09-06T22:30:08.449Z,3.05
2022-09-06T22:32:34.833Z,4.75
2022-09-06T22:35:01.539Z,6.07
2022-09-06T22:37:28.125Z,5.07
2022-09-06T22:39:54.601Z,5.37
2022-09-06T22:42:21.168Z,4.32
2022-09-06T22:44:47.803Z,2.58
2022-09-06T22:47:14.412Z,2.17
2022-09-06T22:49:41.873Z,1.50
2022-09-06T22:52:08.631Z,1.63
2022-09-06T22:54:39.475Z,1.27
2022-09-06T22:57:09.592Z,1.05
2022-09-06T22:59:36.472Z,0.95
2022-09-06T23:02:11.566Z,1.00
2022-09-06T23:04:47.126Z,0.90
2022-09-06T23:07:21.413Z,0.90
2022-09-06T23:09:51.812Z,1.00
2022-09-06T23:12:18.793Z,1.05
2022-09-06T23:14:54.553Z,1.05
2022-09-06T23:17:22.246Z,0.93
2022-09-06T23:19:53.216Z,0.80
2022-09-06T23:22:19.617Z,0.80
2022-09-06T23:24:46.310Z,1.00
2022-09-06T23:27:12.898Z,1.27
2022-09-06T23:29:41.204Z,1.30
2022-09-06T23:32:07.784Z,1.05
2022-09-06T23:34:34.336Z,1.00
2022-09-06T23:37:00.714Z,1.05
2022-09-06T23:39:28.245Z,1.35
2022-09-06T23:41:55.992Z,1.30
2022-09-06T23:44:23.017Z,1.13
2022-09-06T23:46:49.479Z,1.25
2022-09-06T23:49:16.114Z,1.13
2022-09-06T23:51:42.682Z,1.17
2022-09-06T23:54:09.072Z,0.97
2022-09-06T23:56:35.621Z,0.98
2022-09-06T23:59:02.090Z,1.05
